Pukwana, South Dakota
Current Conditions -  °F | °C
As of 8:15 AM on Sunday 21 Dec 2014 (Local Time) from K9V9 Reporting Station
Haze Haze  
Wind Chill: 15°   Ceiling: Unl
Heat Index: 24°   Visibility: 4mi
Dew Point: 22°   Wind: 7mph
Humidity: 96%   Direction: 120°ESE
Pressure: 29.65"   Gusts: NA
Location:  43.78°N, 99.18°W
Report Text: K9V9 211415Z AUTO 12006KT 4SM BR CLR M05/M05 A2965 RMK AO2 T10471053
Loading
Personal Weather Stations






























Interactive Weather Map New forecast layout! Learn more

10-Day Weather Forecast

Advertisements
Track Severe Weather on mobile